Time;durP1;ratioP1;P1;durP2;ratioP2;P2;SDS_P1;SDS_P2;PMS_P1;PMS_P2;Temp;Humidity;BMP_temperature;BMP_pressure;BME280_temperature;BME280_humidity;BME280_pressure;Samples;Min_cycle;Max_cycle;Signal;HPM_P1;HPM_P2
2021/08/19 00:00:41;;;;;;;5.15;2.80;;;;;;;17.48;92.80;99640.15;714546;1177;113864;-79
2021/08/19 00:15:43;;;;;;;5.10;2.90;;;;;;;17.44;92.81;99637.88;715472;1201;115344;-80
2021/08/19 00:30:45;;;;;;;4.15;2.33;;;;;;;17.37;94.44;99639.69;714076;1203;113988;-81
2021/08/19 00:45:48;;;;;;;5.05;2.80;;;;;;;17.41;94.34;99637.47;714200;1203;114171;-79
2021/08/19 01:00:50;;;;;;;4.95;2.95;;;;;;;17.53;95.13;99640.38;714193;1203;113828;-82
2021/08/19 01:15:52;;;;;;;3.53;2.55;;;;;;;17.58;95.92;99627.36;714134;1199;114216;-81
2021/08/19 01:30:55;;;;;;;3.98;2.15;;;;;;;17.60;96.38;99631.42;713986;1200;113776;-79
2021/08/19 01:46:08;;;;;;;4.53;2.60;;;;;;;17.61;97.75;99629.61;714066;1203;113586;-81
2021/08/19 02:01:11;;;;;;;5.43;2.50;;;;;;;17.60;97.30;99631.42;714140;1202;113832;-79
2021/08/19 02:16:13;;;;;;;3.27;2.20;;;;;;;17.52;98.39;99630.78;714063;1177;113846;-79
2021/08/19 02:31:16;;;;;;;3.28;2.50;;;;;;;17.45;98.90;99630.75;714169;1203;114421;-79
2021/08/19 02:46:18;;;;;;;5.83;2.70;;;;;;;17.47;99.19;99626.05;714200;1203;113847;-79
2021/08/19 03:01:20;;;;;;;5.50;2.65;;;;;;;17.52;99.84;99614.88;714181;1175;113209;-78
2021/08/19 03:16:23;;;;;;;5.33;2.93;;;;;;;17.53;99.77;99627.93;714116;1177;113703;-78
2021/08/19 03:31:26;;;;;;;4.87;2.93;;;;;;;17.51;100.00;99631.80;714155;1200;115593;-79
2021/08/19 03:46:29;;;;;;;3.40;2.70;;;;;;;17.53;100.00;99637.73;714325;1180;114082;-80
2021/08/19 04:01:31;;;;;;;4.20;2.95;;;;;;;17.53;100.00;99643.84;714055;1203;113986;-80
2021/08/19 04:16:34;;;;;;;6.95;2.70;;;;;;;17.37;100.00;99639.69;716494;1193;114076;-80
2021/08/19 04:31:37;;;;;;;4.00;2.97;;;;;;;17.30;100.00;99657.36;716142;1178;113947;-81
2021/08/19 04:46:39;;;;;;;5.17;2.83;;;;;;;17.18;100.00;99648.33;715151;1205;115276;-81
2021/08/19 05:01:42;;;;;;;6.85;3.18;;;;;;;16.97;100.00;99663.25;716332;1200;114748;-81
2021/08/19 05:16:44;;;;;;;6.15;3.23;;;;;;;16.78;100.00;99659.42;717304;1177;114030;-82
2021/08/19 05:31:46;;;;;;;5.15;3.45;;;;;;;16.80;100.00;99676.76;715826;1203;113983;-81
2021/08/19 05:46:49;;;;;;;5.90;3.87;;;;;;;16.68;100.00;99669.51;717350;1178;114168;-82
2021/08/19 06:01:51;;;;;;;7.55;3.80;;;;;;;16.85;100.00;99659.47;716079;1200;114030;-82
2021/08/19 06:16:53;;;;;;;8.35;4.00;;;;;;;17.10;100.00;99660.73;716044;1200;115343;-82
2021/08/19 06:31:55;;;;;;;12.10;4.18;;;;;;;17.18;100.00;99688.88;716273;1176;114145;-82
2021/08/19 06:46:58;;;;;;;6.73;4.43;;;;;;;17.56;100.00;99687.71;716632;1203;114181;-81
2021/08/19 07:02:01;;;;;;;5.45;4.20;;;;;;;17.56;100.00;99687.71;715586;1200;114506;-74
2021/08/19 07:17:04;;;;;;;9.87;4.60;;;;;;;17.73;100.00;99683.71;718436;1205;114426;-76
2021/08/19 07:32:06;;;;;;;5.85;4.40;;;;;;;17.58;100.00;99691.81;714630;1200;114570;-76
2021/08/19 07:47:09;;;;;;;8.03;4.97;;;;;;;17.48;100.00;99691.34;714180;1200;115325;-77
2021/08/19 08:02:12;;;;;;;9.40;5.90;;;;;;;17.66;100.00;99690.00;714592;1200;115745;-79
2021/08/19 08:17:15;;;;;;;10.20;6.40;;;;;;;18.36;100.00;99697.88;714316;1200;113835;-78
2021/08/19 08:32:17;;;;;;;9.03;6.00;;;;;;;18.78;100.00;99707.33;714779;1202;114169;-74
2021/08/19 08:47:20;;;;;;;6.20;5.23;;;;;;;19.71;100.00;99715.45;714865;1200;113869;-76
2021/08/19 09:02:26;;;;;;;7.50;5.87;;;;;;;19.61;100.00;99723.86;721877;1178;115316;-76
2021/08/19 09:17:51;;;;;;;12.80;8.45;;;;;;;19.14;100.00;99741.73;714661;1189;113978;-75
2021/08/19 09:32:54;;;;;;;10.23;6.47;;;;;;;20.07;100.00;99740.74;714414;1202;115487;-75
2021/08/19 09:48:11;;;;;;;10.08;6.20;;;;;;;20.03;100.00;99748.33;714194;1177;114930;-74
2021/08/19 10:03:18;;;;;;;7.73;6.48;;;;;;;19.72;99.79;99749.03;714693;1199;114289;-75
2021/08/19 10:18:25;;;;;;;7.50;5.30;;;;;;;19.33;100.00;99766.66;715317;1204;113727;-76
2021/08/19 10:33:38;;;;;;;8.55;5.63;;;;;;;20.26;99.45;99766.48;714357;1177;114389;-78
2021/08/19 10:48:50;;;;;;;10.03;4.63;;;;;;;21.59;94.24;99766.64;714462;1189;113822;-79
2021/08/19 11:03:54;;;;;;;4.68;4.05;;;;;;;21.64;86.82;99773.97;715208;1199;114034;-76
2021/08/19 11:19:20;;;;;;;5.27;3.27;;;;;;;20.92;84.03;99795.67;714084;1199;114591;-76
2021/08/19 11:34:23;;;;;;;4.60;3.93;;;;;;;21.38;84.54;99802.51;715830;1199;115031;-76
2021/08/19 11:49:26;;;;;;;5.95;2.90;;;;;;;21.43;80.75;99810.67;714392;1183;113825;-73
2021/08/19 12:04:33;;;;;;;3.55;3.20;;;;;;;20.71;82.59;99829.61;713703;1199;114110;-74
2021/08/19 12:19:36;;;;;;;2.65;2.45;;;;;;;20.88;84.50;99829.94;714017;1200;115903;-79
2021/08/19 12:35:01;;;;;;;5.70;4.05;;;;;;;21.03;83.61;99861.63;713818;1203;116371;-78
2021/08/19 12:50:05;;;;;;;6.43;3.85;;;;;;;20.67;85.06;99839.04;714001;1200;115068;-78
2021/08/19 13:05:08;;;;;;;10.23;4.50;;;;;;;20.50;86.25;99856.55;715989;1202;114314;-76
2021/08/19 13:20:14;;;;;;;7.50;3.43;;;;;;;20.73;86.03;99848.05;714152;1200;114860;-82
2021/08/19 13:35:17;;;;;;;4.55;3.03;;;;;;;21.69;82.69;99842.71;715856;1202;114039;-81
2021/08/19 13:50:19;;;;;;;6.17;4.07;;;;;;;23.14;78.49;99866.36;714433;1199;114759;-79
2021/08/19 14:05:22;;;;;;;4.55;3.80;;;;;;;23.25;76.19;99861.04;714164;1202;114825;-79
2021/08/19 14:20:24;;;;;;;10.28;3.63;;;;;;;28.34;63.68;99870.73;714278;1200;114159;-79
2021/08/19 14:35:26;;;;;;;6.20;3.03;;;;;;;28.51;58.83;99878.63;721207;1200;115280;-74
2021/08/19 14:50:28;;;;;;;5.53;2.48;;;;;;;29.91;55.69;99883.11;719620;1174;113675;-74
2021/08/19 15:05:31;;;;;;;5.30;2.98;;;;;;;25.68;62.10;99890.93;714103;1202;114630;-76
2021/08/19 15:20:35;;;;;;;4.73;3.08;;;;;;;23.27;65.54;99890.23;715008;1200;113797;-75
2021/08/19 15:35:37;;;;;;;4.33;2.83;;;;;;;22.36;68.63;99898.97;714183;1200;114126;-75
2021/08/19 15:50:39;;;;;;;4.18;3.15;;;;;;;21.44;72.28;99907.53;714258;1200;115184;-74
2021/08/19 16:05:42;;;;;;;5.18;3.93;;;;;;;21.15;74.93;99919.62;713924;1178;113177;-74
2021/08/19 16:20:45;;;;;;;7.13;4.80;;;;;;;21.42;77.05;99912.28;714682;1200;113749;-75
2021/08/19 16:35:47;;;;;;;8.40;3.80;;;;;;;22.08;76.34;99931.50;714121;1178;114414;-74
2021/08/19 16:50:50;;;;;;;5.05;2.65;;;;;;;21.43;78.44;99937.91;714590;1202;113778;-73
2021/08/19 17:05:55;;;;;;;13.65;6.65;;;;;;;21.18;80.28;99937.84;715873;1177;115477;-73
2021/08/19 17:20:57;;;;;;;8.90;5.55;;;;;;;20.95;82.13;99945.34;715441;1177;114098;-72
2021/08/19 17:36:00;;;;;;;10.37;6.07;;;;;;;20.65;83.82;99954.86;714626;1200;115613;-73
2021/08/19 17:51:02;;;;;;;29.43;17.78;;;;;;;20.44;84.93;99967.40;714570;1183;114006;-76
2021/08/19 18:06:07;;;;;;;15.93;6.47;;;;;;;20.24;86.24;99975.42;714580;1200;114100;-72
2021/08/19 18:21:12;;;;;;;15.80;7.73;;;;;;;20.09;87.95;100002.27;714566;1184;113932;-73
2021/08/19 18:36:14;;;;;;;10.25;6.20;;;;;;;19.70;88.66;100015.28;714160;1200;114277;-77
2021/08/19 18:51:16;;;;;;;10.77;6.10;;;;;;;19.58;91.18;100036.34;714705;1200;114174;-78
2021/08/19 19:06:19;;;;;;;20.00;13.17;;;;;;;19.27;93.24;100044.84;714884;1176;114355;-78
2021/08/19 19:21:22;;;;;;;11.75;6.43;;;;;;;19.16;93.77;100058.69;714805;1200;114367;-79
2021/08/19 19:36:24;;;;;;;7.20;4.80;;;;;;;19.04;95.16;100063.73;715229;1179;114061;-78
2021/08/19 19:51:26;;;;;;;6.85;4.08;;;;;;;18.99;95.89;100061.69;714792;1176;114025;-77
2021/08/19 20:06:28;;;;;;;6.38;3.73;;;;;;;18.87;96.87;100063.20;714717;1202;114012;-77
2021/08/19 20:21:31;;;;;;;8.63;4.40;;;;;;;18.72;99.00;100077.41;714405;1204;114285;-73
2021/08/19 20:36:34;;;;;;;6.03;3.83;;;;;;;18.37;100.00;100082.67;714477;1200;114855;-73
2021/08/19 20:51:37;;;;;;;9.63;3.93;;;;;;;17.95;100.00;100089.63;715455;1176;114115;-73
2021/08/19 21:06:39;;;;;;;5.70;4.23;;;;;;;17.75;100.00;100100.81;714851;1178;114073;-77
2021/08/19 21:21:42;;;;;;;5.47;3.93;;;;;;;17.55;100.00;100115.66;714431;1200;115455;-77
2021/08/19 21:36:44;;;;;;;7.60;3.63;;;;;;;17.42;100.00;100121.61;714990;1205;115615;-77
2021/08/19 21:51:47;;;;;;;6.60;4.23;;;;;;;17.20;100.00;100123.38;714559;1200;115471;-77
2021/08/19 22:06:49;;;;;;;9.50;4.87;;;;;;;17.07;100.00;100122.16;714272;1178;114157;-77
2021/08/19 22:21:53;;;;;;;7.48;5.18;;;;;;;16.91;100.00;100130.29;715505;1200;115726;-77
2021/08/19 22:36:55;;;;;;;7.88;4.65;;;;;;;16.66;100.00;100143.72;713943;1202;115007;-79
2021/08/19 22:51:57;;;;;;;9.50;4.90;;;;;;;16.44;100.00;100142.73;714765;1199;115354;-78
2021/08/19 23:07:00;;;;;;;5.80;4.53;;;;;;;16.32;100.00;100146.80;714489;1177;113549;-78
2021/08/19 23:22:04;;;;;;;6.95;4.78;;;;;;;16.09;100.00;100151.07;713899;1200;114745;-78
2021/08/19 23:37:06;;;;;;;9.10;5.30;;;;;;;16.15;100.00;100165.41;713842;1200;114703;-77
2021/08/19 23:52:09;;;;;;;6.80;4.60;;;;;;;16.11;100.00;100178.19;713857;1200;115320;-79
